sensor_id;sensor_type;location;lat;lon;timestamp;pressure;altitude;pressure_sealevel;temperature;humidity
73501;BME280;61721;42.206;25.320;2024-03-08T00:00:48;99727.44;;;6.79;80.16
73501;BME280;61721;42.206;25.320;2024-03-08T00:03:17;99724.53;;;6.80;80.01
73501;BME280;61721;42.206;25.320;2024-03-08T00:05:44;99723.09;;;6.63;80.59
73501;BME280;61721;42.206;25.320;2024-03-08T00:08:12;99719.34;;;6.64;80.51
73501;BME280;61721;42.206;25.320;2024-03-08T00:10:39;99720.66;;;6.68;80.60
73501;BME280;61721;42.206;25.320;2024-03-08T00:13:08;99717.22;;;6.59;80.80
73501;BME280;61721;42.206;25.320;2024-03-08T00:15:35;99708.44;;;6.72;79.96
73501;BME280;61721;42.206;25.320;2024-03-08T00:18:03;99704.66;;;6.52;80.42
73501;BME280;61721;42.206;25.320;2024-03-08T00:20:31;99704.25;;;6.55;80.43
73501;BME280;61721;42.206;25.320;2024-03-08T00:22:59;99703.28;;;6.77;79.70
73501;BME280;61721;42.206;25.320;2024-03-08T00:25:26;99698.91;;;6.76;80.17
73501;BME280;61721;42.206;25.320;2024-03-08T00:27:53;99698.66;;;6.71;80.18
73501;BME280;61721;42.206;25.320;2024-03-08T00:30:23;99694.50;;;6.75;79.44
73501;BME280;61721;42.206;25.320;2024-03-08T00:32:51;99709.66;;;6.55;80.38
73501;BME280;61721;42.206;25.320;2024-03-08T00:35:18;99705.94;;;6.56;80.47
73501;BME280;61721;42.206;25.320;2024-03-08T00:37:45;99709.47;;;6.71;80.17
73501;BME280;61721;42.206;25.320;2024-03-08T00:40:13;99717.38;;;6.73;79.69
73501;BME280;61721;42.206;25.320;2024-03-08T00:42:41;99720.69;;;6.39;80.64
73501;BME280;61721;42.206;25.320;2024-03-08T00:45:10;99714.34;;;6.61;79.74
73501;BME280;61721;42.206;25.320;2024-03-08T00:47:39;99720.09;;;6.58;80.34
73501;BME280;61721;42.206;25.320;2024-03-08T00:50:08;99722.16;;;6.56;80.58
73501;BME280;61721;42.206;25.320;2024-03-08T00:52:36;99709.66;;;6.55;80.02
73501;BME280;61721;42.206;25.320;2024-03-08T00:55:03;99709.47;;;6.56;80.23
73501;BME280;61721;42.206;25.320;2024-03-08T00:57:31;99716.38;;;6.59;80.07
73501;BME280;61721;42.206;25.320;2024-03-08T00:59:59;99718.34;;;6.50;80.62
73501;BME280;61721;42.206;25.320;2024-03-08T01:02:26;99712.75;;;6.52;80.38
73501;BME280;61721;42.206;25.320;2024-03-08T01:04:56;99710.78;;;6.46;80.72
73501;BME280;61721;42.206;25.320;2024-03-08T01:07:23;99710.69;;;6.54;79.63
73501;BME280;61721;42.206;25.320;2024-03-08T01:09:51;99709.84;;;6.68;79.90
73501;BME280;61721;42.206;25.320;2024-03-08T01:12:18;99717.38;;;6.73;79.94
73501;BME280;61721;42.206;25.320;2024-03-08T01:14:45;99710.78;;;6.46;80.17
73501;BME280;61721;42.206;25.320;2024-03-08T01:17:13;99700.63;;;6.48;79.63
73501;BME280;61721;42.206;25.320;2024-03-08T01:19:40;99701.66;;;6.47;80.31
73501;BME280;61721;42.206;25.320;2024-03-08T01:22:12;99706.16;;;6.40;80.51
73501;BME280;61721;42.206;25.320;2024-03-08T01:24:39;99714.38;;;6.31;80.89
73501;BME280;61721;42.206;25.320;2024-03-08T01:27:07;99715.47;;;6.52;80.41
73501;BME280;61721;42.206;25.320;2024-03-08T01:29:35;99707.47;;;6.44;80.26
73501;BME280;61721;42.206;25.320;2024-03-08T01:32:02;99713.97;;;6.34;80.41
73501;BME280;61721;42.206;25.320;2024-03-08T01:34:29;99717.81;;;6.40;79.96
73501;BME280;61721;42.206;25.320;2024-03-08T01:36:58;99708.75;;;6.48;80.12
73501;BME280;61721;42.206;25.320;2024-03-08T01:39:28;99711.63;;;6.46;80.19
73501;BME280;61721;42.206;25.320;2024-03-08T01:41:55;99709.22;;;6.37;80.35
73501;BME280;61721;42.206;25.320;2024-03-08T01:44:22;99716.31;;;6.38;80.06
73501;BME280;61721;42.206;25.320;2024-03-08T01:46:51;99715.47;;;6.52;79.81
73501;BME280;61721;42.206;25.320;2024-03-08T01:49:21;99720.22;;;6.35;80.06
73501;BME280;61721;42.206;25.320;2024-03-08T01:51:49;99724.41;;;6.38;79.96
73501;BME280;61721;42.206;25.320;2024-03-08T01:54:18;99713.03;;;6.57;79.71
73501;BME280;61721;42.206;25.320;2024-03-08T01:56:48;99724.97;;;6.48;80.03
73501;BME280;61721;42.206;25.320;2024-03-08T01:59:15;99717.88;;;6.47;79.79
73501;BME280;61721;42.206;25.320;2024-03-08T02:01:43;99726.47;;;6.36;79.68
73501;BME280;61721;42.206;25.320;2024-03-08T02:04:10;99712.88;;;6.44;79.42
73501;BME280;61721;42.206;25.320;2024-03-08T02:06:38;99722.06;;;6.49;79.64
73501;BME280;61721;42.206;25.320;2024-03-08T02:09:05;99726.09;;;6.39;80.17
73501;BME280;61721;42.206;25.320;2024-03-08T02:11:34;99719.56;;;6.48;80.00
73501;BME280;61721;42.206;25.320;2024-03-08T02:14:03;99727.59;;;6.26;80.00
73501;BME280;61721;42.206;25.320;2024-03-08T02:16:32;99726.47;;;6.36;80.15
73501;BME280;61721;42.206;25.320;2024-03-08T02:19:00;99729.19;;;6.21;80.63
73501;BME280;61721;42.206;25.320;2024-03-08T02:21:29;99727.22;;;6.29;80.30
73501;BME280;61721;42.206;25.320;2024-03-08T02:23:58;99732.25;;;6.32;79.86
73501;BME280;61721;42.206;25.320;2024-03-08T02:26:26;99730.41;;;6.33;79.88
73501;BME280;61721;42.206;25.320;2024-03-08T02:28:53;99722.63;;;6.45;79.63
73501;BME280;61721;42.206;25.320;2024-03-08T02:31:21;99724.25;;;6.24;79.58
73501;BME280;61721;42.206;25.320;2024-03-08T02:33:49;99723.03;;;6.12;80.45
73501;BME280;61721;42.206;25.320;2024-03-08T02:36:16;99716.22;;;6.16;80.57
73501;BME280;61721;42.206;25.320;2024-03-08T02:38:45;99727.59;;;6.26;80.43
73501;BME280;61721;42.206;25.320;2024-03-08T02:41:12;99731.59;;;6.16;79.72
73501;BME280;61721;42.206;25.320;2024-03-08T02:43:39;99724.63;;;6.21;79.72
73501;BME280;61721;42.206;25.320;2024-03-08T02:46:07;99727.03;;;6.16;79.94
73501;BME280;61721;42.206;25.320;2024-03-08T02:48:35;99732.88;;;6.34;79.69
73501;BME280;61721;42.206;25.320;2024-03-08T02:51:04;99734.09;;;6.17;80.06
73501;BME280;61721;42.206;25.320;2024-03-08T02:53:31;99739.53;;;6.32;79.67
73501;BME280;61721;42.206;25.320;2024-03-08T02:56:00;99735.59;;;6.20;80.16
73501;BME280;61721;42.206;25.320;2024-03-08T02:58:27;99736.91;;;6.09;80.31
73501;BME280;61721;42.206;25.320;2024-03-08T03:00:54;99732.06;;;6.19;79.81
73501;BME280;61721;42.206;25.320;2024-03-08T03:03:23;99731.50;;;6.09;80.12
73501;BME280;61721;42.206;25.320;2024-03-08T03:05:50;99736.13;;;5.86;81.01
73501;BME280;61721;42.206;25.320;2024-03-08T03:08:21;99733.38;;;5.94;80.73
73501;BME280;61721;42.206;25.320;2024-03-08T03:10:49;99732.97;;;6.26;79.38
73501;BME280;61721;42.206;25.320;2024-03-08T03:13:18;99727.03;;;6.16;79.18
73501;BME280;61721;42.206;25.320;2024-03-08T03:15:46;99730.22;;;6.05;79.49
73501;BME280;61721;42.206;25.320;2024-03-08T03:18:13;99735.03;;;5.95;80.69
73501;BME280;61721;42.206;25.320;2024-03-08T03:20:41;99734.56;;;6.06;80.05
73501;BME280;61721;42.206;25.320;2024-03-08T03:23:10;99735.44;;;6.21;79.40
73501;BME280;61721;42.206;25.320;2024-03-08T03:25:39;99730.66;;;6.09;79.18
73501;BME280;61721;42.206;25.320;2024-03-08T03:28:07;99736.53;;;6.12;79.35
73501;BME280;61721;42.206;25.320;2024-03-08T03:30:38;99736.53;;;6.12;79.13
73501;BME280;61721;42.206;25.320;2024-03-08T03:33:05;99742.50;;;6.22;79.00
73501;BME280;61721;42.206;25.320;2024-03-08T03:35:34;99745.09;;;6.16;79.45
73501;BME280;61721;42.206;25.320;2024-03-08T03:38:01;99741.09;;;6.12;79.61
73501;BME280;61721;42.206;25.320;2024-03-08T03:40:32;99740.91;;;6.13;79.26
73501;BME280;61721;42.206;25.320;2024-03-08T03:43:00;99746.22;;;6.21;79.37
73501;BME280;61721;42.206;25.320;2024-03-08T03:45:28;99745.19;;;6.08;80.00
73501;BME280;61721;42.206;25.320;2024-03-08T03:48:08;99760.75;;;6.20;79.48
73501;BME280;61721;42.206;25.320;2024-03-08T03:50:36;99756.47;;;6.11;78.83
73501;BME280;61721;42.206;25.320;2024-03-08T03:53:04;99754.13;;;6.08;79.02
73501;BME280;61721;42.206;25.320;2024-03-08T03:55:33;99762.25;;;6.23;79.43
73501;BME280;61721;42.206;25.320;2024-03-08T03:58:00;99763.28;;;6.22;78.53
73501;BME280;61721;42.206;25.320;2024-03-08T04:00:28;99765.06;;;6.15;79.38
73501;BME280;61721;42.206;25.320;2024-03-08T04:02:55;99761.50;;;6.14;79.39
73501;BME280;61721;42.206;25.320;2024-03-08T04:05:27;99753.94;;;6.10;79.45
73501;BME280;61721;42.206;25.320;2024-03-08T04:07:54;99762.06;;;5.95;80.16
73501;BME280;61721;42.206;25.320;2024-03-08T04:10:22;99763.91;;;6.09;79.47
73501;BME280;61721;42.206;25.320;2024-03-08T04:12:50;99764.84;;;6.16;79.24
73501;BME280;61721;42.206;25.320;2024-03-08T04:15:18;99768.41;;;6.31;78.96
73501;BME280;61721;42.206;25.320;2024-03-08T04:17:46;99775.06;;;6.06;78.90
73501;BME280;61721;42.206;25.320;2024-03-08T04:20:13;99767.63;;;6.08;78.91
73501;BME280;61721;42.206;25.320;2024-03-08T04:22:42;99771.56;;;6.20;79.03
73501;BME280;61721;42.206;25.320;2024-03-08T04:25:10;99770.50;;;6.07;78.66
73501;BME280;61721;42.206;25.320;2024-03-08T04:27:38;99768.28;;;5.95;78.96
73501;BME280;61721;42.206;25.320;2024-03-08T04:30:07;99769.66;;;6.06;79.07
73501;BME280;61721;42.206;25.320;2024-03-08T04:32:35;99767.28;;;6.11;78.67
73501;BME280;61721;42.206;25.320;2024-03-08T04:35:04;99757.22;;;6.05;78.92
73501;BME280;61721;42.206;25.320;2024-03-08T04:37:31;99763.47;;;5.83;79.68
73501;BME280;61721;42.206;25.320;2024-03-08T04:40:00;99766.53;;;6.03;78.92
73501;BME280;61721;42.206;25.320;2024-03-08T04:42:28;99767.63;;;6.08;78.72
73501;BME280;61721;42.206;25.320;2024-03-08T04:44:58;99770.41;;;6.00;79.04
73501;BME280;61721;42.206;25.320;2024-03-08T04:47:26;99770.06;;;6.03;78.84
73501;BME280;61721;42.206;25.320;2024-03-08T04:49:53;99776.66;;;6.01;78.63
73501;BME280;61721;42.206;25.320;2024-03-08T04:52:21;99779.75;;;6.12;78.79
73501;BME280;61721;42.206;25.320;2024-03-08T04:54:49;99782.91;;;6.01;78.79
73501;BME280;61721;42.206;25.320;2024-03-08T04:57:18;99781.13;;;6.08;78.84
73501;BME280;61721;42.206;25.320;2024-03-08T04:59:46;99781.34;;;5.84;79.26
73501;BME280;61721;42.206;25.320;2024-03-08T05:02:14;99783.84;;;5.93;79.03
73501;BME280;61721;42.206;25.320;2024-03-08T05:04:41;99780.88;;;6.03;79.21
73501;BME280;61721;42.206;25.320;2024-03-08T05:07:09;99784.28;;;5.97;79.23
73501;BME280;61721;42.206;25.320;2024-03-08T05:09:36;99779.09;;;6.10;79.45
73501;BME280;61721;42.206;25.320;2024-03-08T05:12:06;99778.13;;;5.88;79.33
73501;BME280;61721;42.206;25.320;2024-03-08T05:14:35;99779.63;;;6.06;79.48
73501;BME280;61721;42.206;25.320;2024-03-08T05:17:03;99785.03;;;5.91;79.22
73501;BME280;61721;42.206;25.320;2024-03-08T05:19:32;99800.78;;;6.02;79.01
73501;BME280;61721;42.206;25.320;2024-03-08T05:22:00;99799.03;;;6.09;78.99
73501;BME280;61721;42.206;25.320;2024-03-08T05:24:27;99807.91;;;6.32;78.76
73501;BME280;61721;42.206;25.320;2024-03-08T05:26:55;99810.88;;;6.38;77.72
73501;BME280;61721;42.206;25.320;2024-03-08T05:29:23;99812.75;;;6.22;78.22
73501;BME280;61721;42.206;25.320;2024-03-08T05:31:59;99809.97;;;6.30;78.59
73501;BME280;61721;42.206;25.320;2024-03-08T05:34:28;99810.72;;;6.24;77.84
73501;BME280;61721;42.206;25.320;2024-03-08T05:36:55;99808.72;;;6.04;78.35
73501;BME280;61721;42.206;25.320;2024-03-08T05:39:36;99817.31;;;6.22;78.45
73501;BME280;61721;42.206;25.320;2024-03-08T05:42:04;99815.31;;;6.16;78.85
73501;BME280;61721;42.206;25.320;2024-03-08T05:44:34;99815.16;;;6.17;78.69
73501;BME280;61721;42.206;25.320;2024-03-08T05:47:03;99813.94;;;6.20;78.31
73501;BME280;61721;42.206;25.320;2024-03-08T05:49:32;99821.25;;;6.34;78.61
73501;BME280;61721;42.206;25.320;2024-03-08T05:52:00;99814.03;;;6.26;78.10
73501;BME280;61721;42.206;25.320;2024-03-08T05:54:27;99827.75;;;6.40;78.11
73501;BME280;61721;42.206;25.320;2024-03-08T05:56:54;99822.06;;;6.34;77.80
73501;BME280;61721;42.206;25.320;2024-03-08T05:59:22;99825.59;;;6.20;78.60
73501;BME280;61721;42.206;25.320;2024-03-08T06:01:50;99832.50;;;6.38;77.99
73501;BME280;61721;42.206;25.320;2024-03-08T06:04:19;99828.31;;;6.35;77.35
73501;BME280;61721;42.206;25.320;2024-03-08T06:06:46;99840.59;;;6.23;77.27
73501;BME280;61721;42.206;25.320;2024-03-08T06:09:13;99840.47;;;6.16;77.80
73501;BME280;61721;42.206;25.320;2024-03-08T06:11:48;99853.19;;;6.30;77.38
73501;BME280;61721;42.206;25.320;2024-03-08T06:14:15;99847.59;;;6.47;77.00
73501;BME280;61721;42.206;25.320;2024-03-08T06:16:44;99855.44;;;6.42;76.62
73501;BME280;61721;42.206;25.320;2024-03-08T06:19:12;99853.09;;;6.39;76.66
73501;BME280;61721;42.206;25.320;2024-03-08T06:21:41;99858.41;;;6.47;76.81
73501;BME280;61721;42.206;25.320;2024-03-08T06:24:09;99849.84;;;6.58;76.25
73501;BME280;61721;42.206;25.320;2024-03-08T06:26:36;99855.19;;;6.51;75.68
73501;BME280;61721;42.206;25.320;2024-03-08T06:29:04;99863.44;;;6.64;75.93
73501;BME280;61721;42.206;25.320;2024-03-08T06:31:33;99862.53;;;6.43;76.29
73501;BME280;61721;42.206;25.320;2024-03-08T06:34:04;99859.16;;;6.41;76.14
73501;BME280;61721;42.206;25.320;2024-03-08T06:36:33;99867.19;;;6.49;76.67
73501;BME280;61721;42.206;25.320;2024-03-08T06:39:03;99867.09;;;6.57;76.31
73501;BME280;61721;42.206;25.320;2024-03-08T06:41:35;99868.38;;;6.46;75.70
73501;BME280;61721;42.206;25.320;2024-03-08T06:44:03;99872.22;;;6.52;75.43
73501;BME280;61721;42.206;25.320;2024-03-08T06:46:31;99866.44;;;6.55;75.43
73501;BME280;61721;42.206;25.320;2024-03-08T06:48:58;99866.25;;;6.56;75.43
73501;BME280;61721;42.206;25.320;2024-03-08T06:51:25;99872.13;;;6.60;75.45
73501;BME280;61721;42.206;25.320;2024-03-08T06:53:53;99876.88;;;6.58;75.65
73501;BME280;61721;42.206;25.320;2024-03-08T06:56:22;99873.53;;;6.56;75.60
73501;BME280;61721;42.206;25.320;2024-03-08T06:58:49;99885.16;;;6.42;75.13
73501;BME280;61721;42.206;25.320;2024-03-08T07:01:17;99883.88;;;6.52;75.55
73501;BME280;61721;42.206;25.320;2024-03-08T07:03:44;99881.72;;;6.48;74.92
73501;BME280;61721;42.206;25.320;2024-03-08T07:06:12;99876.97;;;6.64;75.10
73501;BME280;61721;42.206;25.320;2024-03-08T07:08:40;99887.13;;;6.48;74.94
73501;BME280;61721;42.206;25.320;2024-03-08T07:11:07;99887.78;;;6.50;74.49
73501;BME280;61721;42.206;25.320;2024-03-08T07:13:36;99897.19;;;6.54;74.29
73501;BME280;61721;42.206;25.320;2024-03-08T07:16:04;99892.31;;;6.34;74.50
73501;BME280;61721;42.206;25.320;2024-03-08T07:18:33;99889.16;;;6.46;73.46
73501;BME280;61721;42.206;25.320;2024-03-08T07:21:03;99890.50;;;6.64;73.10
73501;BME280;61721;42.206;25.320;2024-03-08T07:23:30;99895.44;;;6.61;73.41
73501;BME280;61721;42.206;25.320;2024-03-08T07:26:24;99901.66;;;6.47;73.28
73501;BME280;61721;42.206;25.320;2024-03-08T07:28:53;99900.53;;;6.41;73.90
73501;BME280;61721;42.206;25.320;2024-03-08T07:31:22;99905.56;;;6.44;73.32
73501;BME280;61721;42.206;25.320;2024-03-08T07:33:57;99901.50;;;6.25;75.00
73501;BME280;61721;42.206;25.320;2024-03-08T07:36:24;99898.81;;;6.25;74.38
73501;BME280;61721;42.206;25.320;2024-03-08T07:38:51;99900.03;;;6.23;74.72
73501;BME280;61721;42.206;25.320;2024-03-08T07:41:19;99902.69;;;6.08;74.44
73501;BME280;61721;42.206;25.320;2024-03-08T07:43:49;99902.66;;;6.31;73.94
73501;BME280;61721;42.206;25.320;2024-03-08T07:46:19;99904.13;;;6.19;74.95
73501;BME280;61721;42.206;25.320;2024-03-08T07:48:50;99901.66;;;6.09;74.94
73501;BME280;61721;42.206;25.320;2024-03-08T07:51:21;99911.44;;;6.33;74.77
73501;BME280;61721;42.206;25.320;2024-03-08T07:53:49;99907.47;;;6.21;75.33
73501;BME280;61721;42.206;25.320;2024-03-08T07:56:28;99909.63;;;6.25;74.80
73501;BME280;61721;42.206;25.320;2024-03-08T07:58:55;99913.38;;;6.24;75.08
73501;BME280;61721;42.206;25.320;2024-03-08T08:01:24;99921.28;;;6.78;74.55
73501;BME280;61721;42.206;25.320;2024-03-08T08:03:52;99919.88;;;6.67;74.44
73501;BME280;61721;42.206;25.320;2024-03-08T08:06:19;99918.81;;;6.54;74.73
73501;BME280;61721;42.206;25.320;2024-03-08T08:08:48;99919.31;;;6.34;74.71
73501;BME280;61721;42.206;25.320;2024-03-08T08:11:15;99922.09;;;6.49;74.80
73501;BME280;61721;42.206;25.320;2024-03-08T08:13:43;99923.53;;;6.37;74.61
73501;BME280;61721;42.206;25.320;2024-03-08T08:16:11;99924.72;;;6.34;75.52
73501;BME280;61721;42.206;25.320;2024-03-08T08:18:40;99925.38;;;6.59;74.53
73501;BME280;61721;42.206;25.320;2024-03-08T08:21:08;99916.22;;;6.75;74.33
73501;BME280;61721;42.206;25.320;2024-03-08T08:23:36;99930.94;;;6.58;75.01
73501;BME280;61721;42.206;25.320;2024-03-08T08:26:04;99927.22;;;6.59;75.26
73501;BME280;61721;42.206;25.320;2024-03-08T08:28:33;99926.66;;;6.26;75.61
73501;BME280;61721;42.206;25.320;2024-03-08T08:31:01;99927.22;;;6.74;75.10
73501;BME280;61721;42.206;25.320;2024-03-08T08:33:29;99933.13;;;6.62;74.11
73501;BME280;61721;42.206;25.320;2024-03-08T08:35:58;99936.94;;;6.68;73.93
73501;BME280;61721;42.206;25.320;2024-03-08T08:38:25;99938.72;;;6.76;73.93
73501;BME280;61721;42.206;25.320;2024-03-08T08:40:52;99941.13;;;6.70;73.96
73501;BME280;61721;42.206;25.320;2024-03-08T08:43:20;99937.94;;;6.67;74.93
73501;BME280;61721;42.206;25.320;2024-03-08T08:45:50;99935.19;;;6.90;74.34
73501;BME280;61721;42.206;25.320;2024-03-08T08:48:20;99939.53;;;6.76;74.82
73501;BME280;61721;42.206;25.320;2024-03-08T08:50:47;99945.91;;;6.98;73.65
73501;BME280;61721;42.206;25.320;2024-03-08T08:53:17;99949.16;;;6.93;73.87
73501;BME280;61721;42.206;25.320;2024-03-08T08:55:45;99944.78;;;6.78;73.64
73501;BME280;61721;42.206;25.320;2024-03-08T08:58:13;99940.38;;;6.62;73.98
73501;BME280;61721;42.206;25.320;2024-03-08T09:00:40;99946.09;;;6.96;74.63
73501;BME280;61721;42.206;25.320;2024-03-08T09:03:09;99947.97;;;6.81;74.17
73501;BME280;61721;42.206;25.320;2024-03-08T09:05:37;99954.28;;;7.03;73.85
73501;BME280;61721;42.206;25.320;2024-03-08T09:08:06;99951.69;;;6.80;74.50
73501;BME280;61721;42.206;25.320;2024-03-08T09:10:35;99947.97;;;6.81;74.09
73501;BME280;61721;42.206;25.320;2024-03-08T09:13:04;99942.25;;;6.61;75.13
73501;BME280;61721;42.206;25.320;2024-03-08T09:15:32;99949.25;;;6.70;74.85
73501;BME280;61721;42.206;25.320;2024-03-08T09:17:59;99947.75;;;6.68;74.61
73501;BME280;61721;42.206;25.320;2024-03-08T09:20:27;99946.63;;;6.77;74.22
73501;BME280;61721;42.206;25.320;2024-03-08T09:22:55;99942.72;;;6.94;74.00
73501;BME280;61721;42.206;25.320;2024-03-08T09:25:22;99942.06;;;7.22;72.82
73501;BME280;61721;42.206;25.320;2024-03-08T09:27:52;99946.28;;;7.39;72.63
73501;BME280;61721;42.206;25.320;2024-03-08T09:30:20;99947.38;;;7.59;72.50
73501;BME280;61721;42.206;25.320;2024-03-08T09:32:47;99943.16;;;7.42;73.05
73501;BME280;61721;42.206;25.320;2024-03-08T09:35:18;99944.31;;;7.03;72.99
73501;BME280;61721;42.206;25.320;2024-03-08T09:37:45;99948.47;;;7.50;72.76
73501;BME280;61721;42.206;25.320;2024-03-08T09:40:16;99947.13;;;7.75;71.21
73501;BME280;61721;42.206;25.320;2024-03-08T09:42:45;99947.41;;;8.02;71.56
73501;BME280;61721;42.206;25.320;2024-03-08T09:45:17;99943.69;;;8.24;71.00
73501;BME280;61721;42.206;25.320;2024-03-08T09:47:45;99947.28;;;8.10;71.65
73501;BME280;61721;42.206;25.320;2024-03-08T09:50:12;99946.34;;;7.31;71.60
73501;BME280;61721;42.206;25.320;2024-03-08T09:52:40;99941.53;;;7.98;71.72
73501;BME280;61721;42.206;25.320;2024-03-08T09:55:10;99952.31;;;7.92;71.38
73501;BME280;61721;42.206;25.320;2024-03-08T09:57:39;99944.31;;;7.83;71.02
73501;BME280;61721;42.206;25.320;2024-03-08T10:00:13;99939.16;;;8.52;69.67
73501;BME280;61721;42.206;25.320;2024-03-08T10:02:51;99940.03;;;8.60;69.44
73501;BME280;61721;42.206;25.320;2024-03-08T10:05:19;99945.94;;;8.20;70.39
73501;BME280;61721;42.206;25.320;2024-03-08T10:07:47;99944.13;;;8.06;70.46
73501;BME280;61721;42.206;25.320;2024-03-08T10:10:15;99931.53;;;7.99;70.53
73501;BME280;61721;42.206;25.320;2024-03-08T10:12:43;99937.44;;;7.66;71.39
73501;BME280;61721;42.206;25.320;2024-03-08T10:15:11;99942.03;;;7.66;71.03
73501;BME280;61721;42.206;25.320;2024-03-08T10:17:42;99939.66;;;7.77;70.83
73501;BME280;61721;42.206;25.320;2024-03-08T10:20:18;99936.81;;;7.86;70.65
73501;BME280;61721;42.206;25.320;2024-03-08T10:22:46;99938.34;;;7.73;71.56
73501;BME280;61721;42.206;25.320;2024-03-08T10:25:14;99941.84;;;7.89;70.76
73501;BME280;61721;42.206;25.320;2024-03-08T10:27:42;99933.84;;;7.80;71.48
73501;BME280;61721;42.206;25.320;2024-03-08T10:30:12;99934.25;;;8.20;71.24
73501;BME280;61721;42.206;25.320;2024-03-08T10:32:41;99944.66;;;7.80;70.64
73501;BME280;61721;42.206;25.320;2024-03-08T10:35:09;99937.28;;;8.10;70.67
73501;BME280;61721;42.206;25.320;2024-03-08T10:37:44;99937.09;;;8.12;70.76
73501;BME280;61721;42.206;25.320;2024-03-08T10:40:16;99928.44;;;8.23;69.91
73501;BME280;61721;42.206;25.320;2024-03-08T10:42:51;99936.00;;;7.70;71.09
73501;BME280;61721;42.206;25.320;2024-03-08T10:45:30;99931.78;;;7.82;71.69
73501;BME280;61721;42.206;25.320;2024-03-08T10:48:17;99931.09;;;7.95;71.21
73501;BME280;61721;42.206;25.320;2024-03-08T10:50:48;99929.84;;;7.98;70.85
73501;BME280;61721;42.206;25.320;2024-03-08T10:53:18;99921.47;;;7.93;70.72
73501;BME280;61721;42.206;25.320;2024-03-08T10:55:47;99929.59;;;7.93;70.44
73501;BME280;61721;42.206;25.320;2024-03-08T10:58:15;99931.53;;;7.99;71.17
73501;BME280;61721;42.206;25.320;2024-03-08T11:00:43;99925.59;;;7.89;71.53
73501;BME280;61721;42.206;25.320;2024-03-08T11:03:44;99924.94;;;8.08;71.32
73501;BME280;61721;42.206;25.320;2024-03-08T11:06:15;99928.03;;;7.83;70.72
73501;BME280;61721;42.206;25.320;2024-03-08T11:08:46;99920.44;;;7.94;71.64
73501;BME280;61721;42.206;25.320;2024-03-08T11:11:26;99921.16;;;7.45;72.46
73501;BME280;61721;42.206;25.320;2024-03-08T11:13:55;99923.91;;;7.66;72.51
73501;BME280;61721;42.206;25.320;2024-03-08T11:16:39;99918.38;;;7.96;70.61
73501;BME280;61721;42.206;25.320;2024-03-08T11:19:26;99912.56;;;8.20;71.34
73501;BME280;61721;42.206;25.320;2024-03-08T11:21:58;99919.69;;;7.78;70.82
73501;BME280;61721;42.206;25.320;2024-03-08T11:24:27;99916.56;;;8.03;71.36
73501;BME280;61721;42.206;25.320;2024-03-08T11:26:57;99904.84;;;7.96;70.83
73501;BME280;61721;42.206;25.320;2024-03-08T11:29:33;99909.34;;;7.89;70.88
73501;BME280;61721;42.206;25.320;2024-03-08T11:32:10;99914.09;;;7.65;71.86
73501;BME280;61721;42.206;25.320;2024-03-08T11:34:38;99913.59;;;7.98;71.59
73501;BME280;61721;42.206;25.320;2024-03-08T11:37:12;99918.00;;;7.77;71.31
73501;BME280;61721;42.206;25.320;2024-03-08T11:39:46;99908.78;;;7.93;71.25
73501;BME280;61721;42.206;25.320;2024-03-08T11:42:14;99911.53;;;8.00;71.81
73501;BME280;61721;42.206;25.320;2024-03-08T11:44:43;99912.06;;;8.10;70.90
73501;BME280;61721;42.206;25.320;2024-03-08T11:47:10;99909.47;;;8.02;71.57
73501;BME280;61721;42.206;25.320;2024-03-08T11:49:38;99914.00;;;8.16;70.30
73501;BME280;61721;42.206;25.320;2024-03-08T11:52:11;99910.00;;;8.33;70.32
73501;BME280;61721;42.206;25.320;2024-03-08T11:54:39;99908.69;;;8.29;70.59
73501;BME280;61721;42.206;25.320;2024-03-08T11:57:08;99916.66;;;8.59;70.23
73501;BME280;61721;42.206;25.320;2024-03-08T11:59:36;99914.78;;;8.31;69.66
73501;BME280;61721;42.206;25.320;2024-03-08T12:02:04;99911.66;;;8.13;70.81
73501;BME280;61721;42.206;25.320;2024-03-08T12:04:32;99922.84;;;8.03;70.33
73501;BME280;61721;42.206;25.320;2024-03-08T12:07:02;99913.69;;;8.04;71.69
73501;BME280;61721;42.206;25.320;2024-03-08T12:09:34;99911.84;;;7.90;71.96
73501;BME280;61721;42.206;25.320;2024-03-08T12:12:03;99908.38;;;8.17;71.77
73501;BME280;61721;42.206;25.320;2024-03-08T12:14:33;99911.63;;;8.06;72.02
73501;BME280;61721;42.206;25.320;2024-03-08T12:17:00;99912.31;;;7.94;73.11
73501;BME280;61721;42.206;25.320;2024-03-08T12:19:28;99910.75;;;7.63;72.11
73501;BME280;61721;42.206;25.320;2024-03-08T12:21:55;99916.84;;;7.87;72.80
73501;BME280;61721;42.206;25.320;2024-03-08T12:24:23;99913.84;;;7.81;72.56
73501;BME280;61721;42.206;25.320;2024-03-08T12:26:51;99920.88;;;7.76;73.07
73501;BME280;61721;42.206;25.320;2024-03-08T12:29:20;99917.22;;;8.26;71.97
73501;BME280;61721;42.206;25.320;2024-03-08T12:31:51;99922.81;;;7.82;72.57
73501;BME280;61721;42.206;25.320;2024-03-08T12:34:19;99920.41;;;7.72;73.94
73501;BME280;61721;42.206;25.320;2024-03-08T12:36:47;99915.72;;;8.02;73.34
73501;BME280;61721;42.206;25.320;2024-03-08T12:39:16;99917.66;;;7.51;73.54
73501;BME280;61721;42.206;25.320;2024-03-08T12:41:48;99915.38;;;7.69;74.12
73501;BME280;61721;42.206;25.320;2024-03-08T12:44:17;99914.47;;;7.62;73.27
73501;BME280;61721;42.206;25.320;2024-03-08T12:46:47;99911.28;;;7.73;72.58
73501;BME280;61721;42.206;25.320;2024-03-08T12:49:16;99904.00;;;7.95;72.77
73501;BME280;61721;42.206;25.320;2024-03-08T12:51:44;99904.94;;;7.66;73.25
73501;BME280;61721;42.206;25.320;2024-03-08T12:54:12;99904.56;;;7.91;73.16
73501;BME280;61721;42.206;25.320;2024-03-08T12:56:40;99900.97;;;7.83;73.26
73501;BME280;61721;42.206;25.320;2024-03-08T12:59:08;99902.38;;;7.58;73.13
73501;BME280;61721;42.206;25.320;2024-03-08T13:01:36;99897.84;;;8.08;72.16
73501;BME280;61721;42.206;25.320;2024-03-08T13:04:04;99888.78;;;8.15;70.94
73501;BME280;61721;42.206;25.320;2024-03-08T13:06:34;99897.00;;;8.07;71.36
73501;BME280;61721;42.206;25.320;2024-03-08T13:09:01;99889.84;;;8.42;69.72